Time,TemperatureF,DewpointF,PressureIn,WindDirection,WindDirectionDegrees,WindSpeedMPH,WindSpeedGustMPH,Humidity,HourlyPrecipIn,Conditions,Clouds,dailyrainin,SoftwareType,DateUTC
2013-09-10 00:12:00,57.0,54.0,30.01,NW,315,0.0,0.0,89,0.00,,,0.00,,2013-09-10 06:12:00,
2013-09-10 00:22:00,56.0,53.0,30.01,NW,315,0.0,1.0,90,0.00,,,0.00,,2013-09-10 06:22:00,
2013-09-10 00:42:00,56.0,53.0,30.01,NW,314,0.0,0.0,91,0.00,,,0.00,,2013-09-10 06:42:00,
2013-09-10 00:52:00,55.0,52.0,30.01,NW,314,0.0,0.0,91,0.00,,,0.00,,2013-09-10 06:52:00,
2013-09-10 01:12:00,55.0,52.0,30.01,NW,314,0.0,0.0,91,0.00,,,0.00,,2013-09-10 07:12:00,
2013-09-10 01:21:00,54.0,51.0,30.02,NW,315,0.0,1.0,91,0.00,,,0.00,,2013-09-10 07:21:00,
2013-09-10 01:42:00,54.0,52.0,30.02,NW,315,0.0,1.0,92,0.00,,,0.00,,2013-09-10 07:42:00,
2013-09-10 01:52:00,53.0,51.0,30.02,NW,314,0.0,2.0,93,0.00,,,0.00,,2013-09-10 07:52:00,
2013-09-10 02:11:00,53.0,51.0,30.03,NW,314,0.0,0.0,94,0.00,,,0.00,,2013-09-10 08:11:00,
2013-09-10 02:22:00,53.0,51.0,30.03,NW,314,0.0,2.0,94,0.00,,,0.00,,2013-09-10 08:22:00,
2013-09-10 02:52:00,53.0,52.0,30.03,NW,307,0.0,3.0,95,0.00,,,0.00,,2013-09-10 08:52:00,
2013-09-10 03:11:00,53.0,52.0,30.03,NW,307,0.0,0.0,95,0.00,,,0.00,,2013-09-10 09:11:00,
2013-09-10 03:21:00,53.0,52.0,30.04,NW,307,0.0,1.0,95,0.00,,,0.00,,2013-09-10 09:21:00,
2013-09-10 03:43:00,52.0,50.0,30.04,NW,307,0.0,1.0,94,0.00,,,0.00,,2013-09-10 09:43:00,
2013-09-10 03:54:00,52.0,50.0,30.04,NW,307,0.0,0.0,94,0.00,,,0.00,,2013-09-10 09:54:00,
2013-09-10 04:13:00,52.0,51.0,30.03,NW,307,0.0,3.0,95,0.00,,,0.00,,2013-09-10 10:13:00,
2013-09-10 04:23:00,52.0,51.0,30.04,NW,307,0.0,3.0,95,0.00,,,0.00,,2013-09-10 10:23:00,
2013-09-10 04:53:00,51.0,50.0,30.05,NW,307,0.0,0.0,95,0.00,,,0.00,,2013-09-10 10:53:00,
2013-09-10 05:11:00,51.0,50.0,30.05,NW,307,0.0,1.0,95,0.00,,,0.00,,2013-09-10 11:11:00,
2013-09-10 05:22:00,51.0,50.0,30.05,NW,307,0.0,0.0,96,0.00,,,0.00,,2013-09-10 11:22:00,
2013-09-10 05:42:00,51.0,50.0,30.05,NW,306,0.0,2.0,95,0.00,,,0.00,,2013-09-10 11:42:00,
2013-09-10 05:52:00,51.0,50.0,30.05,NW,306,0.0,0.0,96,0.00,,,0.00,,2013-09-10 11:52:00,
2013-09-10 06:11:00,50.0,49.0,30.06,NW,306,0.0,0.0,96,0.00,,,0.00,,2013-09-10 12:11:00,
2013-09-10 06:22:00,50.0,49.0,30.06,NW,306,0.0,1.0,96,0.00,,,0.00,,2013-09-10 12:22:00,
2013-09-10 06:42:00,50.0,49.0,30.06,NW,308,1.0,3.0,96,0.00,,,0.00,,2013-09-10 12:42:00,
2013-09-10 06:52:00,50.0,49.0,30.06,NW,308,0.0,1.0,95,0.00,,,0.00,,2013-09-10 12:52:00,
2013-09-10 07:11:00,49.0,48.0,30.06,NW,308,0.0,1.0,96,0.00,,,0.00,,2013-09-10 13:11:00,
2013-09-10 07:21:00,49.0,48.0,30.07,NW,308,0.0,1.0,95,0.00,,,0.00,,2013-09-10 13:21:00,
2013-09-10 07:41:00,48.0,47.0,30.07,NW,307,0.0,0.0,96,0.00,,,0.00,,2013-09-10 13:41:00,
2013-09-10 07:52:00,48.0,47.0,30.08,NW,308,0.0,1.0,96,0.00,,,0.00,,2013-09-10 13:52:00,
2013-09-10 08:11:00,49.0,48.0,30.09,NW,304,0.0,4.0,96,0.00,,,0.00,,2013-09-10 14:11:00,
2013-09-10 08:21:00,49.0,48.0,30.09,NW,304,0.0,1.0,97,0.00,,,0.00,,2013-09-10 14:21:00,
2013-09-10 08:52:00,51.0,50.0,30.09,WNW,283,0.0,2.0,97,0.00,,,0.00,,2013-09-10 14:52:00,
2013-09-10 09:11:00,52.0,51.0,30.09,WNW,283,0.0,1.0,97,0.00,,,0.00,,2013-09-10 15:11:00,
2013-09-10 09:22:00,53.0,52.0,30.09,NW,317,1.0,3.0,97,0.00,,,0.00,,2013-09-10 15:22:00,
2013-09-10 09:43:00,54.0,53.0,30.09,NNW,334,1.0,4.0,96,0.00,,,0.00,,2013-09-10 15:43:00,
2013-09-10 09:54:00,56.0,54.0,30.10,NW,325,0.0,4.0,94,0.00,,,0.00,,2013-09-10 15:54:00,
2013-09-10 10:12:00,57.0,55.0,30.10,NW,316,0.0,3.0,92,0.00,,,0.00,,2013-09-10 16:12:00,
2013-09-10 10:23:00,59.0,55.0,30.11,NW,315,0.0,1.0,88,0.00,,,0.00,,2013-09-10 16:23:00,
2013-09-10 10:43:00,61.0,55.0,30.11,NE,50,0.0,5.0,82,0.00,,,0.00,,2013-09-10 16:43:00,
2013-09-10 10:53:00,63.0,57.0,30.10,NE,53,0.0,7.0,80,0.00,,,0.00,,2013-09-10 16:53:00,
2013-09-10 11:12:00,64.0,56.0,30.10,NE,43,0.0,3.0,76,0.00,,,0.00,,2013-09-10 17:12:00,
2013-09-10 11:23:00,65.0,56.0,30.09,North,360,0.0,3.0,73,0.00,,,0.00,,2013-09-10 17:23:00,
2013-09-10 11:52:00,67.0,56.0,30.09,ENE,74,0.0,3.0,68,0.00,,,0.00,,2013-09-10 17:52:00,
2013-09-10 12:12:00,68.0,56.0,30.09,East,96,3.0,9.0,66,0.00,,,0.00,,2013-09-10 18:12:00,
2013-09-10 12:21:00,68.0,56.0,30.09,East,94,1.0,8.0,66,0.00,,,0.00,,2013-09-10 18:21:00,
2013-09-10 12:42:00,69.0,57.0,30.08,ESE,107,1.0,7.0,65,0.00,,,0.00,,2013-09-10 18:42:00,
2013-09-10 12:52:00,70.0,57.0,30.08,ESE,109,0.0,4.0,63,0.00,,,0.00,,2013-09-10 18:52:00,
2013-09-10 13:11:00,71.0,59.0,30.08,ESE,107,0.0,4.0,65,0.00,,,0.00,,2013-09-10 19:11:00,
2013-09-10 13:21:00,71.0,57.0,30.07,South,189,0.0,6.0,61,0.00,,,0.00,,2013-09-10 19:21:00,
2013-09-10 13:42:00,72.0,56.0,30.07,SE,132,0.0,7.0,58,0.00,,,0.00,,2013-09-10 19:42:00,
2013-09-10 13:52:00,73.0,56.0,30.06,ESE,120,1.0,7.0,56,0.00,,,0.00,,2013-09-10 19:52:00,
2013-09-10 14:11:00,73.0,55.0,30.06,East,101,2.0,7.0,53,0.00,,,0.00,,2013-09-10 20:11:00,
2013-09-10 14:21:00,74.0,56.0,30.06,ESE,116,0.0,9.0,53,0.00,,,0.00,,2013-09-10 20:21:00,
2013-09-10 14:42:00,74.0,55.0,30.05,ESE,105,4.0,8.0,52,0.00,,,0.00,,2013-09-10 20:42:00,
2013-09-10 14:52:00,75.0,55.0,30.05,SE,131,1.0,7.0,50,0.00,,,0.00,,2013-09-10 20:52:00,
2013-09-10 15:22:00,76.0,56.0,30.04,ESE,107,1.0,7.0,50,0.00,,,0.00,,2013-09-10 21:22:00,
2013-09-10 15:33:00,76.0,56.0,30.04,ESE,107,1.0,7.0,50,0.00,,,0.00,,2013-09-10 21:33:00,
2013-09-10 15:44:00,76.0,56.0,30.04,ESE,107,1.0,7.0,50,0.00,,,0.00,,2013-09-10 21:44:00,
2013-09-10 15:54:00,76.0,55.0,30.03,SE,128,0.0,7.0,48,0.00,,,0.00,,2013-09-10 21:54:00,
2013-09-10 16:13:00,77.0,55.0,30.03,ESE,113,2.0,6.0,47,0.00,,,0.00,,2013-09-10 22:13:00,
2013-09-10 16:24:00,78.0,57.0,30.02,SE,134,1.0,7.0,48,0.00,,,0.00,,2013-09-10 22:24:00,
2013-09-10 16:42:00,77.0,56.0,30.02,SE,146,1.0,7.0,48,0.00,,,0.00,,2013-09-10 22:42:00,
2013-09-10 16:54:00,78.0,56.0,30.02,SSE,152,0.0,7.0,47,0.00,,,0.00,,2013-09-10 22:54:00,
2013-09-10 17:13:00,78.0,56.0,30.02,SE,131,1.0,8.0,46,0.00,,,0.00,,2013-09-10 23:13:00,
2013-09-10 17:22:00,78.0,54.0,30.01,SE,132,1.0,7.0,44,0.00,,,0.00,,2013-09-10 23:22:00,
2013-09-10 17:53:00,78.0,56.0,30.01,South,178,3.0,6.0,47,0.00,,,0.00,,2013-09-10 23:53:00,
2013-09-10 18:11:00,78.0,55.0,30.00,ESE,104,1.0,5.0,45,0.00,,,0.00,,2013-09-11 00:11:00,
2013-09-10 18:22:00,78.0,55.0,30.01,SE,132,2.0,7.0,45,0.00,,,0.00,,2013-09-11 00:22:00,
2013-09-10 18:42:00,78.0,55.0,30.01,SSE,163,0.0,6.0,45,0.00,,,0.00,,2013-09-11 00:42:00,
2013-09-10 18:52:00,78.0,56.0,30.01,SE,126,0.0,5.0,46,0.00,,,0.00,,2013-09-11 00:52:00,
2013-09-10 19:11:00,78.0,55.0,30.01,SE,126,0.0,1.0,45,0.00,,,0.00,,2013-09-11 01:11:00,
2013-09-10 19:21:00,78.0,56.0,30.01,SE,128,0.0,2.0,46,0.00,,,0.00,,2013-09-11 01:21:00,
2013-09-10 19:41:00,77.0,55.0,30.01,SE,128,0.0,1.0,46,0.00,,,0.00,,2013-09-11 01:41:00,
2013-09-10 19:53:00,77.0,56.0,30.01,SE,128,0.0,0.0,49,0.00,,,0.00,,2013-09-11 01:53:00,
2013-09-10 20:22:00,74.0,55.0,30.01,SE,128,0.0,0.0,52,0.00,,,0.00,,2013-09-11 02:22:00,
2013-09-10 20:43:00,72.0,56.0,30.01,WSW,242,0.0,1.0,57,0.00,,,0.00,,2013-09-11 02:43:00,
2013-09-10 20:52:00,70.0,56.0,30.02,WSW,242,0.0,1.0,62,0.00,,,0.00,,2013-09-11 02:52:00,
2013-09-10 21:12:00,69.0,56.0,30.02,WSW,242,0.0,0.0,64,0.00,,,0.00,,2013-09-11 03:12:00,
2013-09-10 21:22:00,67.0,55.0,30.03,WSW,242,0.0,1.0,66,0.00,,,0.00,,2013-09-11 03:22:00,
2013-09-10 21:44:00,66.0,56.0,30.03,WSW,242,0.0,1.0,70,0.00,,,0.00,,2013-09-11 03:44:00,
2013-09-10 21:54:00,65.0,56.0,30.04,WSW,242,0.0,1.0,73,0.00,,,0.00,,2013-09-11 03:54:00,
2013-09-10 22:14:00,64.0,56.0,30.04,WSW,242,0.0,1.0,75,0.00,,,0.00,,2013-09-11 04:14:00,
2013-09-10 22:24:00,64.0,56.0,30.04,WSW,242,0.0,1.0,75,0.00,,,0.00,,2013-09-11 04:24:00,
2013-09-10 22:43:00,62.0,55.0,30.04,WSW,242,0.0,1.0,77,0.00,,,0.00,,2013-09-11 04:43:00,
2013-09-10 22:54:00,61.0,55.0,30.05,WSW,242,0.0,2.0,80,0.00,,,0.00,,2013-09-11 04:54:00,
2013-09-10 23:12:00,60.0,54.0,30.05,WNW,300,2.0,5.0,82,0.00,,,0.00,,2013-09-11 05:12:00,
2013-09-10 23:22:00,61.0,55.0,30.06,WNW,299,0.0,4.0,82,0.00,,,0.00,,2013-09-11 05:22:00,
2013-09-10 23:53:00,60.0,54.0,30.06,WNW,299,0.0,0.0,81,0.00,,,0.00,,2013-09-11 05:53:00,